sensor_id;sensor_type;location;lat;lon;timestamp;pressure;altitude;pressure_sealevel;temperature;humidity
21728;BME280;11026;50.560;17.852;2022-12-29T00:00:08;99492.03;;;4.17;77.71
21728;BME280;11026;50.560;17.852;2022-12-29T00:02:36;99493.75;;;4.18;77.49
21728;BME280;11026;50.560;17.852;2022-12-29T00:05:04;99481.56;;;4.15;77.90
21728;BME280;11026;50.560;17.852;2022-12-29T00:07:32;99469.31;;;4.17;77.70
21728;BME280;11026;50.560;17.852;2022-12-29T00:09:59;99458.00;;;4.15;77.43
21728;BME280;11026;50.560;17.852;2022-12-29T00:12:26;99458.72;;;4.24;77.12
21728;BME280;11026;50.560;17.852;2022-12-29T00:15:14;99453.38;;;4.30;76.79
21728;BME280;11026;50.560;17.852;2022-12-29T00:18:00;99458.53;;;4.33;76.50
21728;BME280;11026;50.560;17.852;2022-12-29T00:20:27;99456.75;;;4.35;76.22
21728;BME280;11026;50.560;17.852;2022-12-29T00:23:14;99449.78;;;4.34;76.33
21728;BME280;11026;50.560;17.852;2022-12-29T00:26:11;99441.03;;;4.35;75.93
21728;BME280;11026;50.560;17.852;2022-12-29T00:29:17;99446.22;;;4.38;76.02
21728;BME280;11026;50.560;17.852;2022-12-29T00:32:04;99460.97;;;4.42;75.88
21728;BME280;11026;50.560;17.852;2022-12-29T00:34:49;99449.63;;;4.41;75.85
21728;BME280;11026;50.560;17.852;2022-12-29T00:37:55;99443.50;;;4.44;75.89
21728;BME280;11026;50.560;17.852;2022-12-29T00:40:43;99424.31;;;4.42;75.43
21728;BME280;11026;50.560;17.852;2022-12-29T00:43:29;99433.03;;;4.42;75.40
21728;BME280;11026;50.560;17.852;2022-12-29T00:46:15;99430.31;;;4.47;75.37
21728;BME280;11026;50.560;17.852;2022-12-29T00:48:46;99418.16;;;4.43;75.16
21728;BME280;11026;50.560;17.852;2022-12-29T00:51:33;99421.47;;;4.51;74.85
21728;BME280;11026;50.560;17.852;2022-12-29T00:54:00;99431.84;;;4.57;74.45
21728;BME280;11026;50.560;17.852;2022-12-29T00:56:29;99443.94;;;4.63;74.14
21728;BME280;11026;50.560;17.852;2022-12-29T00:59:01;99441.25;;;4.67;73.93
21728;BME280;11026;50.560;17.852;2022-12-29T01:01:29;99429.03;;;4.66;73.58
21728;BME280;11026;50.560;17.852;2022-12-29T01:03:59;99442.09;;;4.68;73.59
21728;BME280;11026;50.560;17.852;2022-12-29T01:06:31;99442.97;;;4.67;73.56
21728;BME280;11026;50.560;17.852;2022-12-29T01:08:59;99448.25;;;4.65;73.79
21728;BME280;11026;50.560;17.852;2022-12-29T01:11:45;99454.47;;;4.61;74.08
21728;BME280;11026;50.560;17.852;2022-12-29T01:14:12;99455.38;;;4.60;74.23
21728;BME280;11026;50.560;17.852;2022-12-29T01:16:40;99465.00;;;4.60;74.25
21728;BME280;11026;50.560;17.852;2022-12-29T01:19:09;99459.81;;;4.57;74.74
21728;BME280;11026;50.560;17.852;2022-12-29T01:21:45;99458.09;;;4.56;74.34
21728;BME280;11026;50.560;17.852;2022-12-29T01:24:15;99436.28;;;4.54;74.53
21728;BME280;11026;50.560;17.852;2022-12-29T01:26:42;99451.16;;;4.53;74.56
21728;BME280;11026;50.560;17.852;2022-12-29T01:29:11;99448.47;;;4.55;74.69
21728;BME280;11026;50.560;17.852;2022-12-29T01:31:39;99440.72;;;4.52;74.57
21728;BME280;11026;50.560;17.852;2022-12-29T01:34:08;99432.84;;;4.52;74.54
21728;BME280;11026;50.560;17.852;2022-12-29T01:36:35;99439.06;;;4.46;74.45
21728;BME280;11026;50.560;17.852;2022-12-29T01:39:02;99429.50;;;4.45;74.95
21728;BME280;11026;50.560;17.852;2022-12-29T01:41:30;99430.44;;;4.41;75.06
21728;BME280;11026;50.560;17.852;2022-12-29T01:47:10;99436.50;;;4.43;74.91
21728;BME280;11026;50.560;17.852;2022-12-29T01:49:38;99434.78;;;4.43;74.89
21728;BME280;11026;50.560;17.852;2022-12-29T01:52:07;99426.88;;;4.45;74.35
21728;BME280;11026;50.560;17.852;2022-12-29T01:54:43;99419.78;;;4.50;74.34
21728;BME280;11026;50.560;17.852;2022-12-29T01:57:15;99407.56;;;4.49;74.25
21728;BME280;11026;50.560;17.852;2022-12-29T02:00:04;99385.75;;;4.49;74.23
21728;BME280;11026;50.560;17.852;2022-12-29T02:02:32;99402.19;;;4.55;73.73
21728;BME280;11026;50.560;17.852;2022-12-29T02:05:11;99392.59;;;4.56;73.47
21728;BME280;11026;50.560;17.852;2022-12-29T02:07:46;99393.47;;;4.56;73.53
21728;BME280;11026;50.560;17.852;2022-12-29T02:10:15;99377.75;;;4.56;73.68
21728;BME280;11026;50.560;17.852;2022-12-29T02:12:44;99385.53;;;4.59;73.24
21728;BME280;11026;50.560;17.852;2022-12-29T02:15:13;99371.53;;;4.60;73.28
21728;BME280;11026;50.560;17.852;2022-12-29T02:21:02;99359.28;;;4.61;72.37
21728;BME280;11026;50.560;17.852;2022-12-29T02:24:04;99367.00;;;4.67;72.50
21728;BME280;11026;50.560;17.852;2022-12-29T02:26:52;99352.91;;;4.73;72.06
21728;BME280;11026;50.560;17.852;2022-12-29T02:35:40;99316.34;;;4.66;72.33
21728;BME280;11026;50.560;17.852;2022-12-29T02:39:00;99328.66;;;4.64;72.60
21728;BME280;11026;50.560;17.852;2022-12-29T02:44:12;99350.53;;;4.62;72.83
21728;BME280;11026;50.560;17.852;2022-12-29T02:46:48;99351.44;;;4.61;72.41
21728;BME280;11026;50.560;17.852;2022-12-29T02:49:26;99343.50;;;4.64;72.79
21728;BME280;11026;50.560;17.852;2022-12-29T02:52:20;99351.44;;;4.61;72.54
21728;BME280;11026;50.560;17.852;2022-12-29T02:54:53;99366.28;;;4.60;72.55
21728;BME280;11026;50.560;17.852;2022-12-29T03:08:17;99353.53;;;4.45;72.94
21728;BME280;11026;50.560;17.852;2022-12-29T03:13:49;99322.16;;;4.42;72.78
21728;BME280;11026;50.560;17.852;2022-12-29T03:16:51;99315.31;;;4.35;73.02
21728;BME280;11026;50.560;17.852;2022-12-29T03:19:35;99344.97;;;4.37;73.15
21728;BME280;11026;50.560;17.852;2022-12-29T03:22:13;99349.41;;;4.33;73.53
21728;BME280;11026;50.560;17.852;2022-12-29T03:24:58;99341.59;;;4.32;73.68
21728;BME280;11026;50.560;17.852;2022-12-29T03:27:30;99349.47;;;4.32;73.70
21728;BME280;11026;50.560;17.852;2022-12-29T03:30:03;99353.84;;;4.30;73.58
21728;BME280;11026;50.560;17.852;2022-12-29T03:32:39;99361.75;;;4.28;73.68
21728;BME280;11026;50.560;17.852;2022-12-29T03:35:11;99344.34;;;4.26;73.75
21728;BME280;11026;50.560;17.852;2022-12-29T03:38:11;99359.09;;;4.30;73.26
21728;BME280;11026;50.560;17.852;2022-12-29T03:40:43;99347.81;;;4.26;73.26
21728;BME280;11026;50.560;17.852;2022-12-29T03:43:12;99348.69;;;4.27;73.00
21728;BME280;11026;50.560;17.852;2022-12-29T03:45:39;99338.25;;;4.24;73.25
21728;BME280;11026;50.560;17.852;2022-12-29T03:48:07;99339.16;;;4.23;73.58
21728;BME280;11026;50.560;17.852;2022-12-29T03:50:34;99347.06;;;4.19;73.29
21728;BME280;11026;50.560;17.852;2022-12-29T03:53:04;99341.88;;;4.18;73.57
21728;BME280;11026;50.560;17.852;2022-12-29T03:55:32;99331.47;;;4.16;73.59
21728;BME280;11026;50.560;17.852;2022-12-29T03:58:06;99326.31;;;4.12;73.75
21728;BME280;11026;50.560;17.852;2022-12-29T04:00:33;99317.59;;;4.11;73.73
21728;BME280;11026;50.560;17.852;2022-12-29T04:03:00;99309.78;;;4.10;73.57
21728;BME280;11026;50.560;17.852;2022-12-29T04:05:31;99313.41;;;4.04;73.72
21728;BME280;11026;50.560;17.852;2022-12-29T04:07:59;99305.59;;;4.01;73.72
21728;BME280;11026;50.560;17.852;2022-12-29T04:10:26;99308.22;;;4.00;73.70
21728;BME280;11026;50.560;17.852;2022-12-29T04:12:54;99315.16;;;4.02;73.89
21728;BME280;11026;50.560;17.852;2022-12-29T04:15:22;99320.53;;;3.96;73.84
21728;BME280;11026;50.560;17.852;2022-12-29T04:17:52;99323.22;;;3.93;74.14
21728;BME280;11026;50.560;17.852;2022-12-29T04:20:19;99320.47;;;3.99;73.94
21728;BME280;11026;50.560;17.852;2022-12-29T04:23:06;99317.94;;;3.96;73.99
21728;BME280;11026;50.560;17.852;2022-12-29T04:25:34;99331.00;;;3.96;73.71
21728;BME280;11026;50.560;17.852;2022-12-29T04:28:01;99325.78;;;3.96;73.78
21728;BME280;11026;50.560;17.852;2022-12-29T04:30:28;99321.31;;;4.01;73.56
21728;BME280;11026;50.560;17.852;2022-12-29T04:32:56;99321.31;;;4.01;73.54
21728;BME280;11026;50.560;17.852;2022-12-29T04:35:23;99322.97;;;4.04;73.29
21728;BME280;11026;50.560;17.852;2022-12-29T04:37:51;99314.16;;;4.08;73.18
21728;BME280;11026;50.560;17.852;2022-12-29T04:40:18;99294.16;;;4.05;73.25
21728;BME280;11026;50.560;17.852;2022-12-29T04:42:52;99287.19;;;4.06;73.37
21728;BME280;11026;50.560;17.852;2022-12-29T04:45:19;99280.13;;;4.09;73.06
21728;BME280;11026;50.560;17.852;2022-12-29T04:47:47;99275.69;;;4.13;72.90
21728;BME280;11026;50.560;17.852;2022-12-29T04:50:14;99280.03;;;4.14;72.97
21728;BME280;11026;50.560;17.852;2022-12-29T04:52:43;99276.50;;;4.15;72.96
21728;BME280;11026;50.560;17.852;2022-12-29T04:55:11;99265.09;;;4.17;72.50
21728;BME280;11026;50.560;17.852;2022-12-29T04:57:38;99253.78;;;4.17;72.80
21728;BME280;11026;50.560;17.852;2022-12-29T05:00:06;99256.34;;;4.18;72.79
21728;BME280;11026;50.560;17.852;2022-12-29T05:02:36;99245.88;;;4.18;73.29
21728;BME280;11026;50.560;17.852;2022-12-29T05:05:10;99257.19;;;4.21;73.19
21728;BME280;11026;50.560;17.852;2022-12-29T05:07:39;99258.97;;;4.18;73.26
21728;BME280;11026;50.560;17.852;2022-12-29T05:10:07;99275.41;;;4.24;73.08
21728;BME280;11026;50.560;17.852;2022-12-29T05:12:36;99271.03;;;4.26;73.01
21728;BME280;11026;50.560;17.852;2022-12-29T05:15:04;99273.66;;;4.26;73.21
21728;BME280;11026;50.560;17.852;2022-12-29T05:17:34;99270.84;;;4.33;72.96
21728;BME280;11026;50.560;17.852;2022-12-29T05:20:02;99265.66;;;4.32;73.20
21728;BME280;11026;50.560;17.852;2022-12-29T05:22:29;99270.78;;;4.36;73.08
21728;BME280;11026;50.560;17.852;2022-12-29T05:24:57;99279.47;;;4.38;72.59
21728;BME280;11026;50.560;17.852;2022-12-29T05:27:24;99293.47;;;4.37;72.63
21728;BME280;11026;50.560;17.852;2022-12-29T05:29:52;99305.53;;;4.44;72.48
21728;BME280;11026;50.560;17.852;2022-12-29T05:32:19;99304.22;;;4.62;72.14
21728;BME280;11026;50.560;17.852;2022-12-29T05:34:47;99299.88;;;4.61;71.95
21728;BME280;11026;50.560;17.852;2022-12-29T05:37:14;99274.94;;;4.45;72.76
21728;BME280;11026;50.560;17.852;2022-12-29T05:39:45;99284.50;;;4.48;72.84
21728;BME280;11026;50.560;17.852;2022-12-29T05:42:12;99273.25;;;4.44;72.76
21728;BME280;11026;50.560;17.852;2022-12-29T05:44:40;99267.94;;;4.46;72.71
21728;BME280;11026;50.560;17.852;2022-12-29T05:47:07;99263.63;;;4.44;72.85
21728;BME280;11026;50.560;17.852;2022-12-29T05:49:35;99268.81;;;4.46;72.85
21728;BME280;11026;50.560;17.852;2022-12-29T05:52:02;99263.47;;;4.51;72.82
21728;BME280;11026;50.560;17.852;2022-12-29T05:54:29;99261.78;;;4.48;72.71
21728;BME280;11026;50.560;17.852;2022-12-29T05:56:57;99258.28;;;4.49;72.51
21728;BME280;11026;50.560;17.852;2022-12-29T05:59:24;99253.69;;;4.57;72.57
21728;BME280;11026;50.560;17.852;2022-12-29T06:01:52;99237.00;;;4.61;72.31
21728;BME280;11026;50.560;17.852;2022-12-29T06:04:20;99229.22;;;4.58;72.59
21728;BME280;11026;50.560;17.852;2022-12-29T06:06:49;99230.09;;;4.59;72.64
21728;BME280;11026;50.560;17.852;2022-12-29T06:09:16;99228.28;;;4.61;72.99
21728;BME280;11026;50.560;17.852;2022-12-29T06:11:44;99227.44;;;4.60;72.93
21728;BME280;11026;50.560;17.852;2022-12-29T06:14:11;99212.66;;;4.58;72.63
21728;BME280;11026;50.560;17.852;2022-12-29T06:16:39;99232.63;;;4.63;72.32
21728;BME280;11026;50.560;17.852;2022-12-29T06:19:06;99227.38;;;4.63;72.18
21728;BME280;11026;50.560;17.852;2022-12-29T06:21:34;99239.53;;;4.66;72.35
21728;BME280;11026;50.560;17.852;2022-12-29T06:24:01;99218.25;;;4.78;71.67
21728;BME280;11026;50.560;17.852;2022-12-29T06:26:28;99218.22;;;4.80;71.51
21728;BME280;11026;50.560;17.852;2022-12-29T06:28:58;99232.13;;;4.83;71.26
21728;BME280;11026;50.560;17.852;2022-12-29T06:31:26;99220.75;;;4.83;71.32
21728;BME280;11026;50.560;17.852;2022-12-29T06:33:53;99223.28;;;4.86;71.10
21728;BME280;11026;50.560;17.852;2022-12-29T06:36:21;99219.69;;;4.90;70.87
21728;BME280;11026;50.560;17.852;2022-12-29T06:38:48;99214.22;;;4.99;70.46
21728;BME280;11026;50.560;17.852;2022-12-29T06:41:20;99221.09;;;5.03;70.32
21728;BME280;11026;50.560;17.852;2022-12-29T06:43:55;99228.84;;;5.08;69.97
21728;BME280;11026;50.560;17.852;2022-12-29T06:46:23;99236.59;;;5.12;69.73
21728;BME280;11026;50.560;17.852;2022-12-29T06:48:50;99232.13;;;5.16;69.53
21728;BME280;11026;50.560;17.852;2022-12-29T06:51:18;99229.53;;;5.14;69.75
21728;BME280;11026;50.560;17.852;2022-12-29T06:53:45;99233.72;;;5.22;69.48
21728;BME280;11026;50.560;17.852;2022-12-29T06:56:14;99229.28;;;5.24;69.23
21728;BME280;11026;50.560;17.852;2022-12-29T06:58:41;99238.94;;;5.22;69.08
21728;BME280;11026;50.560;17.852;2022-12-29T07:01:09;99228.66;;;5.15;69.23
21728;BME280;11026;50.560;17.852;2022-12-29T07:03:37;99240.91;;;5.13;69.63
21728;BME280;11026;50.560;17.852;2022-12-29T07:06:05;99239.16;;;5.14;69.62
21728;BME280;11026;50.560;17.852;2022-12-29T07:08:33;99241.91;;;5.09;69.73
21728;BME280;11026;50.560;17.852;2022-12-29T07:11:00;99233.09;;;5.12;69.90
21728;BME280;11026;50.560;17.852;2022-12-29T07:13:28;99226.03;;;5.15;69.59
21728;BME280;11026;50.560;17.852;2022-12-29T07:15:55;99221.50;;;5.21;69.18
21728;BME280;11026;50.560;17.852;2022-12-29T07:18:22;99214.38;;;5.26;69.13
21728;BME280;11026;50.560;17.852;2022-12-29T07:20:57;99227.41;;;5.29;68.83
21728;BME280;11026;50.560;17.852;2022-12-29T07:23:26;99217.75;;;5.31;69.02
21728;BME280;11026;50.560;17.852;2022-12-29T07:26:02;99216.84;;;5.32;68.88
21728;BME280;11026;50.560;17.852;2022-12-29T07:28:32;99229.03;;;5.33;68.74
21728;BME280;11026;50.560;17.852;2022-12-29T07:31:00;99237.75;;;5.35;68.91
21728;BME280;11026;50.560;17.852;2022-12-29T07:33:31;99243.78;;;5.37;68.76
21728;BME280;11026;50.560;17.852;2022-12-29T07:35:59;99248.13;;;5.38;68.69
21728;BME280;11026;50.560;17.852;2022-12-29T07:38:27;99249.88;;;5.39;69.13
21728;BME280;11026;50.560;17.852;2022-12-29T07:40:58;99241.09;;;5.40;68.70
21728;BME280;11026;50.560;17.852;2022-12-29T07:43:26;99244.34;;;5.48;69.29
21728;BME280;11026;50.560;17.852;2022-12-29T07:45:53;99251.25;;;5.52;68.91
21728;BME280;11026;50.560;17.852;2022-12-29T07:48:22;99259.69;;;5.63;68.61
21728;BME280;11026;50.560;17.852;2022-12-29T07:50:49;99254.34;;;5.66;68.46
21728;BME280;11026;50.560;17.852;2022-12-29T07:53:17;99258.41;;;5.77;68.03
21728;BME280;11026;50.560;17.852;2022-12-29T07:55:44;99271.25;;;5.86;68.12
21728;BME280;11026;50.560;17.852;2022-12-29T07:58:11;99268.53;;;5.90;68.14
21728;BME280;11026;50.560;17.852;2022-12-29T08:00:39;99255.06;;;6.03;67.51
21728;BME280;11026;50.560;17.852;2022-12-29T08:03:06;99265.22;;;6.13;67.04
21728;BME280;11026;50.560;17.852;2022-12-29T08:05:34;99257.19;;;6.20;66.83
21728;BME280;11026;50.560;17.852;2022-12-29T08:08:01;99258.66;;;6.28;66.23
21728;BME280;11026;50.560;17.852;2022-12-29T08:10:35;99263.72;;;6.34;66.51
21728;BME280;11026;50.560;17.852;2022-12-29T08:13:03;99265.34;;;6.38;65.84
21728;BME280;11026;50.560;17.852;2022-12-29T08:15:31;99272.22;;;6.43;65.78
21728;BME280;11026;50.560;17.852;2022-12-29T08:17:58;99262.56;;;6.43;66.03
21728;BME280;11026;50.560;17.852;2022-12-29T08:20:27;99270.38;;;6.46;65.58
21728;BME280;11026;50.560;17.852;2022-12-29T08:22:54;99273.88;;;6.45;66.28
21728;BME280;11026;50.560;17.852;2022-12-29T08:25:22;99275.78;;;6.42;65.97
21728;BME280;11026;50.560;17.852;2022-12-29T08:27:50;99266.13;;;6.42;65.97
21728;BME280;11026;50.560;17.852;2022-12-29T08:30:17;99253.78;;;6.44;66.55
21728;BME280;11026;50.560;17.852;2022-12-29T08:32:45;99255.56;;;6.44;66.47
21728;BME280;11026;50.560;17.852;2022-12-29T08:35:12;99262.53;;;6.45;66.80
21728;BME280;11026;50.560;17.852;2022-12-29T08:37:39;99259.88;;;6.45;66.99
21728;BME280;11026;50.560;17.852;2022-12-29T08:40:07;99257.31;;;6.43;67.41
21728;BME280;11026;50.560;17.852;2022-12-29T08:42:35;99260.75;;;6.45;67.08
21728;BME280;11026;50.560;17.852;2022-12-29T08:45:03;99264.97;;;6.51;67.05
21728;BME280;11026;50.560;17.852;2022-12-29T08:47:30;99267.59;;;6.51;66.70
21728;BME280;11026;50.560;17.852;2022-12-29T08:49:58;99268.22;;;6.59;66.95
21728;BME280;11026;50.560;17.852;2022-12-29T08:52:25;99269.28;;;6.53;66.76
21728;BME280;11026;50.560;17.852;2022-12-29T08:54:52;99264.66;;;6.60;66.64
21728;BME280;11026;50.560;17.852;2022-12-29T08:57:20;99256.84;;;6.58;66.70
21728;BME280;11026;50.560;17.852;2022-12-29T08:59:47;99267.13;;;6.64;66.36
21728;BME280;11026;50.560;17.852;2022-12-29T09:02:14;99264.31;;;6.71;65.99
21728;BME280;11026;50.560;17.852;2022-12-29T09:04:50;99278.88;;;6.81;66.19
21728;BME280;11026;50.560;17.852;2022-12-29T09:07:17;99275.44;;;6.79;65.73
21728;BME280;11026;50.560;17.852;2022-12-29T09:09:44;99272.91;;;6.76;65.79
21728;BME280;11026;50.560;17.852;2022-12-29T09:12:18;99274.88;;;6.69;66.21
21728;BME280;11026;50.560;17.852;2022-12-29T09:14:48;99267.91;;;6.68;66.27
21728;BME280;11026;50.560;17.852;2022-12-29T09:17:16;99258.16;;;6.72;66.14
21728;BME280;11026;50.560;17.852;2022-12-29T09:20:01;99262.25;;;6.80;65.65
21728;BME280;11026;50.560;17.852;2022-12-29T09:22:30;99256.34;;;6.74;66.09
21728;BME280;11026;50.560;17.852;2022-12-29T09:24:57;99254.59;;;6.73;66.13
21728;BME280;11026;50.560;17.852;2022-12-29T09:27:24;99244.22;;;6.70;66.76
21728;BME280;11026;50.560;17.852;2022-12-29T09:29:53;99239.06;;;6.67;66.76
21728;BME280;11026;50.560;17.852;2022-12-29T09:32:20;99248.66;;;6.68;67.04
21728;BME280;11026;50.560;17.852;2022-12-29T09:34:50;99232.72;;;6.72;67.22
21728;BME280;11026;50.560;17.852;2022-12-29T09:37:17;99245.72;;;6.77;66.86
21728;BME280;11026;50.560;17.852;2022-12-29T09:39:45;99230.94;;;6.73;66.95
21728;BME280;11026;50.560;17.852;2022-12-29T09:42:37;99234.31;;;6.78;66.85
21728;BME280;11026;50.560;17.852;2022-12-29T09:45:27;99234.91;;;6.86;66.46
21728;BME280;11026;50.560;17.852;2022-12-29T09:47:56;99231.16;;;7.18;65.37
21728;BME280;11026;50.560;17.852;2022-12-29T09:50:37;99232.66;;;7.00;65.06
21728;BME280;11026;50.560;17.852;2022-12-29T09:53:14;99238.41;;;6.85;66.45
21728;BME280;11026;50.560;17.852;2022-12-29T09:55:51;99240.34;;;6.80;66.58
21728;BME280;11026;50.560;17.852;2022-12-29T09:58:37;99231.69;;;6.78;67.47
21728;BME280;11026;50.560;17.852;2022-12-29T10:01:14;99234.47;;;6.73;67.67
21728;BME280;11026;50.560;17.852;2022-12-29T10:03:51;99232.97;;;6.64;68.34
21728;BME280;11026;50.560;17.852;2022-12-29T10:06:25;99237.94;;;6.74;68.76
21728;BME280;11026;50.560;17.852;2022-12-29T10:09:02;99238.97;;;6.70;68.57
21728;BME280;11026;50.560;17.852;2022-12-29T10:17:40;99243.41;;;6.94;67.83
21728;BME280;11026;50.560;17.852;2022-12-29T10:25:39;99235.50;;;6.68;68.70
21728;BME280;11026;50.560;17.852;2022-12-29T10:28:21;99237.53;;;6.59;68.85
21728;BME280;11026;50.560;17.852;2022-12-29T10:30:51;99227.97;;;6.57;69.40
21728;BME280;11026;50.560;17.852;2022-12-29T10:33:22;99225.94;;;6.65;69.45
21728;BME280;11026;50.560;17.852;2022-12-29T10:35:51;99230.16;;;6.71;69.26
21728;BME280;11026;50.560;17.852;2022-12-29T10:38:48;99237.81;;;6.77;69.36
21728;BME280;11026;50.560;17.852;2022-12-29T10:43:50;99255.84;;;6.89;69.47
21728;BME280;11026;50.560;17.852;2022-12-29T10:46:30;99242.69;;;6.89;68.63
21728;BME280;11026;50.560;17.852;2022-12-29T10:49:00;99243.75;;;7.08;69.26
21728;BME280;11026;50.560;17.852;2022-12-29T10:51:32;99240.94;;;7.14;68.31
21728;BME280;11026;50.560;17.852;2022-12-29T10:54:11;99246.63;;;7.02;68.48
21728;BME280;11026;50.560;17.852;2022-12-29T10:57:03;99243.84;;;7.07;68.51
21728;BME280;11026;50.560;17.852;2022-12-29T10:59:36;99235.25;;;7.02;68.90
21728;BME280;11026;50.560;17.852;2022-12-29T11:05:00;99242.69;;;6.89;69.45
21728;BME280;11026;50.560;17.852;2022-12-29T11:07:32;99242.63;;;6.90;69.62
21728;BME280;11026;50.560;17.852;2022-12-29T11:10:37;99227.91;;;6.85;69.75
21728;BME280;11026;50.560;17.852;2022-12-29T11:13:17;99240.84;;;6.91;70.09
21728;BME280;11026;50.560;17.852;2022-12-29T11:15:49;99223.38;;;6.90;70.66
21728;BME280;11026;50.560;17.852;2022-12-29T11:18:38;99218.06;;;6.92;70.73
21728;BME280;11026;50.560;17.852;2022-12-29T11:26:51;99222.84;;;7.05;70.40
21728;BME280;11026;50.560;17.852;2022-12-29T11:29:24;99223.38;;;7.15;69.32
21728;BME280;11026;50.560;17.852;2022-12-29T11:31:57;99208.16;;;7.48;67.75
21728;BME280;11026;50.560;17.852;2022-12-29T11:34:31;99200.59;;;7.86;67.45
21728;BME280;11026;50.560;17.852;2022-12-29T11:37:13;99210.31;;;8.53;64.59
21728;BME280;11026;50.560;17.852;2022-12-29T11:40:01;99196.31;;;8.29;64.62
21728;BME280;11026;50.560;17.852;2022-12-29T11:42:46;99198.25;;;8.02;64.38
21728;BME280;11026;50.560;17.852;2022-12-29T11:45:40;99183.78;;;7.90;65.34
21728;BME280;11026;50.560;17.852;2022-12-29T11:48:17;99197.59;;;7.95;65.33
21728;BME280;11026;50.560;17.852;2022-12-29T11:50:57;99192.59;;;7.89;65.60
21728;BME280;11026;50.560;17.852;2022-12-29T11:53:47;99178.53;;;8.12;64.73
21728;BME280;11026;50.560;17.852;2022-12-29T11:56:20;99182.47;;;7.78;64.85
21728;BME280;11026;50.560;17.852;2022-12-29T11:58:50;99189.41;;;7.81;65.24
21728;BME280;11026;50.560;17.852;2022-12-29T12:01:36;99193.94;;;7.99;64.98
21728;BME280;11026;50.560;17.852;2022-12-29T12:04:15;99201.16;;;7.72;64.84
21728;BME280;11026;50.560;17.852;2022-12-29T12:09:33;99193.38;;;7.44;66.39
21728;BME280;11026;50.560;17.852;2022-12-29T12:12:05;99190.88;;;7.41;66.56
21728;BME280;11026;50.560;17.852;2022-12-29T12:14:43;99194.56;;;7.37;66.86
21728;BME280;11026;50.560;17.852;2022-12-29T12:17:24;99185.84;;;7.35;67.13
21728;BME280;11026;50.560;17.852;2022-12-29T12:20:03;99183.56;;;7.26;67.85
21728;BME280;11026;50.560;17.852;2022-12-29T12:22:43;99186.50;;;7.17;68.03
21728;BME280;11026;50.560;17.852;2022-12-29T12:25:41;99183.59;;;7.24;68.65
21728;BME280;11026;50.560;17.852;2022-12-29T12:28:25;99181.53;;;7.09;68.83
21728;BME280;11026;50.560;17.852;2022-12-29T12:31:02;99186.91;;;7.04;69.26
21728;BME280;11026;50.560;17.852;2022-12-29T12:33:39;99170.53;;;6.98;69.94
21728;BME280;11026;50.560;17.852;2022-12-29T12:42:27;99176.81;;;6.94;70.49
21728;BME280;11026;50.560;17.852;2022-12-29T12:51:39;99176.63;;;6.98;71.36
21728;BME280;11026;50.560;17.852;2022-12-29T12:59:52;99181.59;;;6.81;72.95
21728;BME280;11026;50.560;17.852;2022-12-29T13:05:21;99164.50;;;6.94;73.29
21728;BME280;11026;50.560;17.852;2022-12-29T13:17:05;99169.22;;;6.84;73.75
21728;BME280;11026;50.560;17.852;2022-12-29T13:22:34;99175.22;;;6.88;74.35
21728;BME280;11026;50.560;17.852;2022-12-29T13:28:06;99188.97;;;6.96;74.47
21728;BME280;11026;50.560;17.852;2022-12-29T13:30:53;99193.47;;;6.93;74.92
21728;BME280;11026;50.560;17.852;2022-12-29T13:33:48;99193.63;;;6.88;74.81
21728;BME280;11026;50.560;17.852;2022-12-29T13:36:36;99196.16;;;6.91;75.03
21728;BME280;11026;50.560;17.852;2022-12-29T13:39:17;99197.78;;;6.95;74.97
21728;BME280;11026;50.560;17.852;2022-12-29T13:41:54;99201.00;;;7.03;74.39
21728;BME280;11026;50.560;17.852;2022-12-29T13:44:28;99202.59;;;7.07;74.28
21728;BME280;11026;50.560;17.852;2022-12-29T13:47:36;99199.94;;;7.09;74.31
21728;BME280;11026;50.560;17.852;2022-12-29T13:50:15;99191.97;;;7.10;74.08
21728;BME280;11026;50.560;17.852;2022-12-29T13:55:35;99185.91;;;7.08;74.02
21728;BME280;11026;50.560;17.852;2022-12-29T14:01:31;99172.06;;;7.03;73.49
21728;BME280;11026;50.560;17.852;2022-12-29T14:04:12;99182.59;;;7.03;73.48
21728;BME280;11026;50.560;17.852;2022-12-29T14:06:41;99180.72;;;7.07;72.85
21728;BME280;11026;50.560;17.852;2022-12-29T14:12:31;99192.41;;;6.98;72.55
21728;BME280;11026;50.560;17.852;2022-12-29T14:15:14;99194.22;;;6.96;72.94
21728;BME280;11026;50.560;17.852;2022-12-29T14:17:44;99193.38;;;6.96;72.71
21728;BME280;11026;50.560;17.852;2022-12-29T14:20:20;99182.09;;;6.92;72.51
21728;BME280;11026;50.560;17.852;2022-12-29T14:28:28;99165.78;;;6.82;73.10
21728;BME280;11026;50.560;17.852;2022-12-29T14:44:50;99161.91;;;6.68;73.12
21728;BME280;11026;50.560;17.852;2022-12-29T14:47:33;99175.28;;;6.61;73.27
21728;BME280;11026;50.560;17.852;2022-12-29T14:50:05;99168.19;;;6.63;72.97
21728;BME280;11026;50.560;17.852;2022-12-29T14:52:51;99173.53;;;6.60;73.30
21728;BME280;11026;50.560;17.852;2022-12-29T14:55:41;99173.50;;;6.62;72.95
21728;BME280;11026;50.560;17.852;2022-12-29T15:04:13;99169.28;;;6.56;72.59
21728;BME280;11026;50.560;17.852;2022-12-29T15:06:42;99175.38;;;6.58;72.42
21728;BME280;11026;50.560;17.852;2022-12-29T15:09:36;99183.16;;;6.61;72.19
21728;BME280;11026;50.560;17.852;2022-12-29T15:12:38;99174.78;;;6.50;72.39
21728;BME280;11026;50.560;17.852;2022-12-29T15:15:28;99176.56;;;6.48;72.38
21728;BME280;11026;50.560;17.852;2022-12-29T15:18:18;99180.03;;;6.50;72.69
21728;BME280;11026;50.560;17.852;2022-12-29T15:20:55;99183.66;;;6.46;72.72
21728;BME280;11026;50.560;17.852;2022-12-29T15:23:24;99180.13;;;6.47;72.99
21728;BME280;11026;50.560;17.852;2022-12-29T15:25:58;99179.28;;;6.45;73.07
21728;BME280;11026;50.560;17.852;2022-12-29T15:28:26;99177.59;;;6.44;72.79
21728;BME280;11026;50.560;17.852;2022-12-29T15:31:03;99172.41;;;6.43;72.89
21728;BME280;11026;50.560;17.852;2022-12-29T15:33:38;99178.50;;;6.43;73.13
21728;BME280;11026;50.560;17.852;2022-12-29T15:36:12;99169.78;;;6.41;72.98
21728;BME280;11026;50.560;17.852;2022-12-29T15:38:40;99180.38;;;6.39;73.03